Time;durP1;ratioP1;P1;durP2;ratioP2;P2;SDS_P1;SDS_P2;PMS_P1;PMS_P2;Temp;Humidity;BMP_temperature;BMP_pressure;BME280_temperature;BME280_humidity;BME280_pressure;Samples;Min_cycle;Max_cycle;Signal;HPM_P1;HPM_P2
2023/01/07 00:01:21;;;;;;;42.60;24.60;;;8.70;99.90;;;;;;5070074;28;20076;-73
2023/01/07 00:03:48;;;;;;;43.47;25.27;;;8.70;99.90;;;;;;5073184;28;20056;-73
2023/01/07 00:06:15;;;;;;;42.22;25.05;;;8.70;99.90;;;;;;5056819;28;20074;-73
2023/01/07 00:08:43;;;;;;;47.80;25.30;;;8.80;99.90;;;;;;5042672;28;20178;-73
2023/01/07 00:11:18;;;;;;;41.05;24.33;;;8.80;99.90;;;;;;5037546;28;20249;-74
2023/01/07 00:13:45;;;;;;;46.42;24.83;;;8.80;99.90;;;;;;5056724;28;20052;-74
2023/01/07 00:16:14;;;;;;;41.50;23.88;;;8.90;99.90;;;;;;5080867;28;20063;-73
2023/01/07 00:18:41;;;;;;;45.38;26.15;;;8.90;99.90;;;;;;5040653;28;20491;-74
2023/01/07 00:21:10;;;;;;;44.65;25.50;;;8.90;99.90;;;;;;5071763;28;20040;-73
2023/01/07 00:23:37;;;;;;;45.83;26.00;;;8.90;99.90;;;;;;5040249;28;20036;-74
2023/01/07 00:26:08;;;;;;;45.53;25.25;;;9.00;99.90;;;;;;5054729;28;20109;-73
2023/01/07 00:28:34;;;;;;;;;;;9.10;99.90;;;;;;5057597;28;20040;-74
2023/01/07 00:31:02;;;;;;;45.28;24.80;;;9.10;99.90;;;;;;5081235;28;19924;-72
2023/01/07 00:33:28;;;;;;;42.88;24.33;;;9.10;99.90;;;;;;5074176;28;20122;-73
2023/01/07 00:36:08;;;;;;;43.83;25.45;;;9.20;99.90;;;;;;5061162;28;20127;-73
2023/01/07 00:38:35;;;;;;;38.47;23.85;;;9.20;99.90;;;;;;5078635;28;20043;-73
2023/01/07 00:41:02;;;;;;;40.80;24.77;;;9.20;99.90;;;;;;5054677;28;20127;-73
2023/01/07 00:43:28;;;;;;;39.58;23.08;;;9.20;99.90;;;;;;5075108;28;20048;-73
2023/01/07 00:45:54;;;;;;;39.67;22.88;;;9.30;99.90;;;;;;5071474;28;20892;-73
2023/01/07 00:48:22;;;;;;;39.47;22.73;;;9.30;99.90;;;;;;5056912;28;20125;-73
2023/01/07 00:50:50;;;;;;;36.78;21.75;;;9.30;99.90;;;;;;5042644;28;20455;-73
2023/01/07 00:53:16;;;;;;;34.13;20.33;;;9.40;99.90;;;;;;5073451;28;20051;-73
2023/01/07 00:55:43;;;;;;;37.90;21.13;;;9.40;99.90;;;;;;5073040;28;20032;-73
2023/01/07 00:58:19;;;;;;;37.30;20.73;;;9.40;99.90;;;;;;5072389;28;20426;-73
2023/01/07 01:00:45;;;;;;;33.88;19.77;;;9.40;99.90;;;;;;5062492;28;20098;-73
2023/01/07 01:03:11;;;;;;;35.65;20.10;;;9.50;99.90;;;;;;5055524;28;20128;-70
2023/01/07 01:05:38;;;;;;;32.83;19.88;;;9.50;99.90;;;;;;5060575;28;20308;-73
2023/01/07 01:08:04;;;;;;;32.40;18.70;;;9.50;99.90;;;;;;5053652;28;20500;-74
2023/01/07 01:10:30;;;;;;;31.25;19.58;;;9.50;99.90;;;;;;5071121;28;20047;-72
2023/01/07 01:12:56;;;;;;;35.22;19.95;;;9.60;99.90;;;;;;5043586;28;20672;-73
2023/01/07 01:15:22;;;;;;;32.30;19.05;;;9.60;99.90;;;;;;5043360;28;20058;-73
2023/01/07 01:17:50;;;;;;;34.13;19.65;;;9.70;99.90;;;;;;5054292;28;20834;-72
2023/01/07 01:20:17;;;;;;;32.55;19.50;;;9.70;99.90;;;;;;5074907;28;20060;-73
2023/01/07 01:22:43;;;;;;;32.05;18.67;;;9.60;99.90;;;;;;5058943;28;20124;-73
2023/01/07 01:25:10;;;;;;;33.92;20.60;;;9.70;99.90;;;;;;5045204;28;20505;-73
2023/01/07 01:27:36;;;;;;;33.22;19.80;;;9.80;99.90;;;;;;5064935;28;20043;-73
2023/01/07 01:30:02;;;;;;;33.50;19.90;;;9.80;99.90;;;;;;5058658;28;20452;-72
2023/01/07 01:32:28;;;;;;;32.30;19.63;;;9.70;99.90;;;;;;5053864;28;20051;-73
2023/01/07 01:34:54;;;;;;;32.08;18.95;;;9.80;99.90;;;;;;5051173;28;20043;-72
2023/01/07 01:37:20;;;;;;;32.58;19.67;;;9.80;99.90;;;;;;5068089;28;20893;-73
2023/01/07 01:39:46;;;;;;;29.95;19.05;;;9.80;99.90;;;;;;5059406;28;20037;-72
2023/01/07 01:42:22;;;;;;;31.55;20.42;;;10.00;99.90;;;;;;5067838;28;20055;-72
2023/01/07 01:44:57;;;;;;;29.83;18.40;;;9.90;99.90;;;;;;5032563;28;20143;-72
2023/01/07 01:47:37;;;;;;;31.35;20.17;;;9.80;99.90;;;;;;5068264;28;20519;-72
2023/01/07 01:50:11;;;;;;;29.92;19.23;;;9.90;99.90;;;;;;5050376;28;20125;-72
2023/01/07 01:53:06;;;;;;;28.55;18.38;;;10.00;99.90;;;;;;5049865;28;20048;-72
2023/01/07 01:55:39;;;;;;;30.70;19.17;;;9.90;99.90;;;;;;5050206;28;20064;-71
2023/01/07 01:58:15;;;;;;;31.92;20.02;;;10.00;99.90;;;;;;5064959;28;21434;-72
2023/01/07 02:00:42;;;;;;;29.73;19.45;;;10.00;99.90;;;;;;5040615;28;20126;-73
2023/01/07 02:03:12;;;;;;;30.67;20.60;;;10.00;99.90;;;;;;5050527;28;20120;-71
2023/01/07 02:05:40;;;;;;;29.17;21.35;;;10.00;99.90;;;;;;5050099;28;20040;-72
2023/01/07 02:08:07;;;;;;;30.67;20.67;;;10.00;99.90;;;;;;5049689;28;20076;-73
2023/01/07 02:10:34;;;;;;;32.72;22.05;;;10.00;99.90;;;;;;5029646;28;20044;-72
2023/01/07 02:13:20;;;;;;;32.35;21.20;;;10.10;99.90;;;;;;5036582;28;20138;-72
2023/01/07 02:15:49;;;;;;;28.70;20.55;;;10.00;99.90;;;;;;5070131;28;20048;-71
2023/01/07 02:18:38;;;;;;;29.00;20.92;;;10.10;99.90;;;;;;5068123;28;20056;-72
2023/01/07 02:21:23;;;;;;;29.85;21.60;;;10.10;99.90;;;;;;5054859;28;20052;-72
2023/01/07 02:24:13;;;;;;;30.73;21.33;;;10.10;99.90;;;;;;5069755;28;20078;-71
2023/01/07 02:26:55;;;;;;;29.77;21.85;;;10.10;99.90;;;;;;5067625;28;20127;-71
2023/01/07 02:29:59;;;;;;;32.97;22.77;;;10.10;99.90;;;;;;5050065;28;20641;-71
2023/01/07 02:32:46;;;;;;;32.25;23.13;;;10.20;99.90;;;;;;5060704;28;20104;-71
2023/01/07 02:35:47;;;;;;;35.30;24.40;;;10.20;99.90;;;;;;5048308;28;20071;-72
2023/01/07 02:38:18;;;;;;;31.75;22.48;;;10.20;99.90;;;;;;5038600;28;20372;-72
2023/01/07 02:41:03;;;;;;;32.45;22.17;;;10.20;99.90;;;;;;5055934;28;20117;-72
2023/01/07 02:43:36;;;;;;;32.65;22.75;;;10.20;99.90;;;;;;5068243;28;20566;-71
2023/01/07 02:46:10;;;;;;;30.77;21.45;;;10.20;99.90;;;;;;5029311;28;20052;-72
2023/01/07 02:48:38;;;;;;;30.23;22.55;;;10.20;99.90;;;;;;5067261;28;20113;-72
2023/01/07 02:51:03;;;;;;;30.60;21.42;;;10.30;99.90;;;;;;5057786;28;20083;-72
2023/01/07 02:53:30;;;;;;;31.50;21.60;;;10.30;99.90;;;;;;5057098;28;20044;-72
2023/01/07 02:56:15;;;;;;;30.83;21.60;;;10.20;99.90;;;;;;5059271;28;20059;-73
2023/01/07 02:58:53;;;;;;;27.33;20.80;;;10.30;99.90;;;;;;5031157;28;20552;-73
2023/01/07 03:01:41;;;;;;;31.63;21.90;;;10.30;99.90;;;;;;5050256;28;20433;-73
2023/01/07 03:04:30;;;;;;;32.20;21.42;;;10.30;99.90;;;;;;5058803;28;20048;-73
2023/01/07 03:07:23;;;;;;;30.02;21.42;;;10.20;99.90;;;;;;5031713;28;20052;-73
2023/01/07 03:10:02;;;;;;;31.55;22.45;;;10.20;99.90;;;;;;5036483;28;20044;-73
2023/01/07 03:12:59;;;;;;;31.15;22.98;;;10.30;99.90;;;;;;5057196;28;20044;-72
2023/01/07 03:15:35;;;;;;;31.33;23.67;;;10.30;99.90;;;;;;5050350;28;20051;-72
2023/01/07 03:18:14;;;;;;;31.55;24.30;;;10.30;99.90;;;;;;5059216;28;20346;-73
2023/01/07 03:20:42;;;;;;;33.70;23.80;;;10.20;99.90;;;;;;5058176;28;20502;-73
2023/01/07 03:23:10;;;;;;;31.58;24.33;;;10.30;99.90;;;;;;5068648;28;20126;-73
2023/01/07 03:25:50;;;;;;;31.13;24.17;;;10.30;99.90;;;;;;5049591;28;20048;-73
2023/01/07 03:28:23;;;;;;;33.63;24.70;;;10.20;99.90;;;;;;5037394;28;20048;-73
2023/01/07 03:30:52;;;;;;;32.50;23.73;;;10.30;99.90;;;;;;5068535;28;20052;-72
2023/01/07 03:33:54;;;;;;;31.92;24.08;;;10.30;99.90;;;;;;5059087;28;20406;-74
2023/01/07 03:36:26;;;;;;;31.75;24.48;;;10.30;99.90;;;;;;5008082;28;20077;-73
2023/01/07 03:38:54;;;;;;;31.70;25.08;;;10.30;99.90;;;;;;5029405;28;20067;-74
2023/01/07 03:44:05;;;;;;;32.83;24.88;;;10.10;99.90;;;;;;5052111;28;20116;-72
2023/01/07 03:46:33;;;;;;;32.20;24.10;;;10.30;99.90;;;;;;5070321;28;20771;-72
2023/01/07 03:48:59;;;;;;;33.15;24.27;;;10.30;99.90;;;;;;5060380;28;20082;-72
2023/01/07 03:51:25;;;;;;;31.27;25.20;;;10.30;99.90;;;;;;5044842;28;20098;-72
2023/01/07 03:53:50;;;;;;;30.30;23.88;;;10.30;99.90;;;;;;5035727;28;20044;-72
2023/01/07 03:56:16;;;;;;;30.95;23.27;;;10.30;99.90;;;;;;5050607;28;20040;-73
2023/01/07 03:58:42;;;;;;;32.95;23.48;;;10.30;99.90;;;;;;5072807;28;20127;-73
2023/01/07 04:01:08;;;;;;;29.67;23.45;;;10.30;99.90;;;;;;5055973;28;20087;-73
2023/01/07 04:03:33;;;;;;;27.58;22.15;;;10.30;99.90;;;;;;5058476;28;20040;-72
2023/01/07 04:05:59;;;;;;;27.38;21.33;;;10.30;99.90;;;;;;5053927;28;20055;-73
2023/01/07 04:08:25;;;;;;;30.60;21.73;;;10.30;99.90;;;;;;5036006;28;20086;-72
2023/01/07 04:10:51;;;;;;;28.95;21.13;;;10.30;99.90;;;;;;5050787;28;20464;-72
2023/01/07 04:13:16;;;;;;;30.15;21.48;;;10.40;99.90;;;;;;5052484;28;20113;-73
2023/01/07 04:15:43;;;;;;;25.77;20.88;;;10.30;99.90;;;;;;5053040;28;20493;-74
2023/01/07 04:18:09;;;;;;;27.80;20.25;;;10.30;99.90;;;;;;5050511;28;20075;-73
2023/01/07 04:20:35;;;;;;;27.00;19.70;;;10.30;99.90;;;;;;5050488;28;20069;-71
2023/01/07 04:23:01;;;;;;;25.88;20.58;;;10.30;99.90;;;;;;5031855;28;20051;-72
2023/01/07 04:25:27;;;;;;;24.90;20.23;;;10.30;99.90;;;;;;5051375;28;20047;-72
2023/01/07 04:27:53;;;;;;;24.90;20.77;;;10.30;99.90;;;;;;5054980;28;20045;-71
2023/01/07 04:30:19;;;;;;;28.63;21.02;;;10.30;99.90;;;;;;5065277;28;20042;-71
2023/01/07 04:32:44;;;;;;;26.25;20.63;;;10.30;99.90;;;;;;5038391;28;20071;-72
2023/01/07 04:35:10;;;;;;;28.27;21.95;;;10.30;99.90;;;;;;5050630;28;20043;-72
2023/01/07 04:37:36;;;;;;;29.73;20.90;;;10.30;99.90;;;;;;5061590;28;20125;-72
2023/01/07 04:40:02;;;;;;;28.55;20.45;;;10.30;99.90;;;;;;5068781;28;20051;-71
2023/01/07 04:42:28;;;;;;;27.42;20.80;;;10.30;99.90;;;;;;5035998;28;20110;-71
2023/01/07 04:44:54;;;;;;;29.27;20.67;;;10.30;99.90;;;;;;5045061;28;20035;-72
2023/01/07 04:47:19;;;;;;;26.55;20.58;;;10.30;99.90;;;;;;5056928;28;20037;-72
2023/01/07 04:49:45;;;;;;;29.23;20.52;;;10.30;99.90;;;;;;5066003;28;20047;-72
2023/01/07 04:52:11;;;;;;;27.13;20.13;;;10.30;99.90;;;;;;5050203;28;20150;-72
2023/01/07 04:54:37;;;;;;;29.40;20.60;;;10.30;99.90;;;;;;5055126;28;20094;-72
2023/01/07 04:57:02;;;;;;;26.55;19.77;;;10.30;99.90;;;;;;5060175;28;20084;-72
2023/01/07 04:59:28;;;;;;;26.73;19.63;;;10.30;99.90;;;;;;5061937;28;20048;-72
2023/01/07 05:01:54;;;;;;;30.50;19.58;;;10.20;99.90;;;;;;5063570;28;20040;-70
2023/01/07 05:04:20;;;;;;;28.60;20.23;;;10.20;99.90;;;;;;5039665;28;20062;-71
2023/01/07 05:06:46;;;;;;;29.35;19.60;;;10.20;99.90;;;;;;5039144;28;20048;-73
2023/01/07 05:09:11;;;;;;;27.60;20.05;;;10.20;99.90;;;;;;5075085;28;20392;-72
2023/01/07 05:11:37;;;;;;;29.60;19.33;;;10.20;99.90;;;;;;5069499;28;20050;-71
2023/01/07 05:14:03;;;;;;;28.13;19.40;;;10.20;99.90;;;;;;5064390;28;20088;-72
2023/01/07 05:16:29;;;;;;;25.60;18.98;;;10.10;99.90;;;;;;5081564;28;20070;-72
2023/01/07 05:18:55;;;;;;;25.58;18.75;;;10.40;99.90;;;;;;5064898;28;20051;-71
2023/01/07 05:21:20;;;;;;;26.88;18.67;;;10.20;99.90;;;;;;5058108;28;20040;-73
2023/01/07 05:23:47;;;;;;;28.42;18.90;;;10.20;99.90;;;;;;5039830;28;20047;-73
2023/01/07 05:26:12;;;;;;;26.80;19.20;;;10.10;99.90;;;;;;5038772;28;20130;-72
2023/01/07 05:28:38;;;;;;;27.08;18.27;;;10.10;99.90;;;;;;5076535;28;20119;-72
2023/01/07 05:31:04;;;;;;;27.40;17.40;;;10.20;99.90;;;;;;5057703;28;20087;-73
2023/01/07 05:33:30;;;;;;;24.80;17.85;;;10.20;99.90;;;;;;5059783;28;20040;-72
2023/01/07 05:35:55;;;;;;;26.02;17.13;;;10.30;99.90;;;;;;5077276;28;20047;-73
2023/01/07 05:38:21;;;;;;;21.55;16.73;;;10.10;99.90;;;;;;5059906;28;20101;-73
2023/01/07 05:40:48;;;;;;;20.75;16.70;;;10.10;99.90;;;;;;5074636;28;20097;-72
2023/01/07 05:43:14;;;;;;;24.40;16.55;;;10.20;99.90;;;;;;5072632;28;20055;-73
2023/01/07 05:45:44;;;;;;;23.70;16.70;;;10.20;99.90;;;;;;5078383;28;20067;-74
2023/01/07 05:48:10;;;;;;;24.25;15.50;;;10.20;99.90;;;;;;5051997;28;20047;-73
2023/01/07 05:50:36;;;;;;;22.73;15.60;;;10.20;99.90;;;;;;5069612;28;20086;-72
2023/01/07 05:53:02;;;;;;;22.05;14.73;;;10.20;99.90;;;;;;5055825;28;20048;-73
2023/01/07 05:55:27;;;;;;;20.42;15.18;;;10.20;99.90;;;;;;5044994;28;20052;-73
2023/01/07 05:57:53;;;;;;;21.20;15.50;;;10.20;99.90;;;;;;5045875;28;20072;-73
2023/01/07 06:00:19;;;;;;;21.48;14.20;;;10.20;99.90;;;;;;5039767;28;20068;-72
2023/01/07 06:02:45;;;;;;;24.13;14.63;;;10.20;99.90;;;;;;5031949;28;20579;-73
2023/01/07 06:05:11;;;;;;;22.42;13.93;;;10.10;99.90;;;;;;5053214;28;20048;-73
2023/01/07 06:07:36;;;;;;;20.58;14.55;;;10.20;99.90;;;;;;5055126;28;20052;-71
2023/01/07 06:10:03;;;;;;;20.27;14.65;;;10.20;99.90;;;;;;5074167;28;20063;-71
2023/01/07 06:12:29;;;;;;;20.05;13.10;;;10.10;99.90;;;;;;5052399;28;20044;-70
2023/01/07 06:14:55;;;;;;;21.63;13.73;;;10.10;99.90;;;;;;5071309;28;20114;-71
2023/01/07 06:17:21;;;;;;;19.73;13.00;;;10.20;99.90;;;;;;5059732;28;20779;-72
2023/01/07 06:19:47;;;;;;;19.42;14.05;;;10.40;99.90;;;;;;5047359;28;20056;-72
2023/01/07 06:22:13;;;;;;;20.75;12.48;;;10.10;99.90;;;;;;5076485;28;20040;-72
2023/01/07 06:24:39;;;;;;;20.50;13.07;;;10.10;99.90;;;;;;5032887;28;20092;-72
2023/01/07 06:27:05;;;;;;;18.65;12.30;;;10.10;99.90;;;;;;5072591;28;20413;-72
2023/01/07 06:29:30;;;;;;;18.75;12.20;;;10.00;99.90;;;;;;5053260;28;20038;-71
2023/01/07 06:31:57;;;;;;;19.98;11.82;;;10.10;99.90;;;;;;5071596;28;20447;-72
2023/01/07 06:34:23;;;;;;;19.35;11.57;;;10.00;99.90;;;;;;5047343;28;20054;-72
2023/01/07 06:36:49;;;;;;;18.77;12.40;;;10.00;99.90;;;;;;5057262;28;20380;-72
2023/01/07 06:39:15;;;;;;;18.80;12.15;;;10.00;99.90;;;;;;5049683;28;20048;-72
2023/01/07 06:41:40;;;;;;;17.50;11.77;;;10.00;99.90;;;;;;5039202;28;20054;-72
2023/01/07 06:44:06;;;;;;;16.92;11.05;;;9.90;99.90;;;;;;5037288;28;20036;-72
2023/01/07 06:46:32;;;;;;;18.38;10.93;;;10.00;99.90;;;;;;5051182;28;20101;-72
2023/01/07 06:48:58;;;;;;;19.50;11.35;;;10.00;99.90;;;;;;5037218;28;20565;-72
2023/01/07 06:51:23;;;;;;;19.23;11.38;;;10.40;99.90;;;;;;5053987;28;20055;-72
2023/01/07 06:53:49;;;;;;;16.95;10.85;;;10.00;99.90;;;;;;5057733;28;20040;-73
2023/01/07 06:56:15;;;;;;;18.77;11.05;;;10.00;99.90;;;;;;5074880;28;20040;-72
2023/01/07 06:58:41;;;;;;;17.63;11.07;;;10.00;99.90;;;;;;5074238;28;20110;-72
2023/01/07 07:01:07;;;;;;;18.00;10.82;;;10.00;99.90;;;;;;5036813;28;20032;-71
2023/01/07 07:03:33;;;;;;;16.73;10.23;;;10.00;99.90;;;;;;5058090;28;20530;-72
2023/01/07 07:05:59;;;;;;;15.07;9.90;;;10.00;99.90;;;;;;5062787;28;20040;-72
2023/01/07 07:08:25;;;;;;;15.85;10.43;;;10.00;99.90;;;;;;5079754;28;20052;-72
2023/01/07 07:10:51;;;;;;;21.35;9.70;;;10.00;99.90;;;;;;5073517;28;20052;-72
2023/01/07 07:13:17;;;;;;;17.77;10.88;;;10.10;99.90;;;;;;5074689;28;20048;-72
2023/01/07 07:15:43;;;;;;;14.98;9.40;;;10.00;99.90;;;;;;5044055;28;20076;-72
2023/01/07 07:18:08;;;;;;;14.13;9.52;;;10.00;99.90;;;;;;5078260;28;20044;-71
2023/01/07 07:20:34;;;;;;;16.40;9.93;;;10.00;99.90;;;;;;5056059;28;20331;-72
2023/01/07 07:23:00;;;;;;;16.75;10.52;;;10.00;99.90;;;;;;5057326;28;20044;-72
2023/01/07 07:25:26;;;;;;;15.25;10.07;;;10.00;99.90;;;;;;5058115;28;20404;-72
2023/01/07 07:27:55;;;;;;;19.25;10.25;;;10.00;99.90;;;;;;5046131;28;20049;-73
2023/01/07 07:30:21;;;;;;;13.25;9.68;;;10.00;99.90;;;;;;5061496;28;20417;-72
2023/01/07 07:32:46;;;;;;;16.23;9.45;;;10.00;99.90;;;;;;5052521;28;20040;-72
2023/01/07 07:35:12;;;;;;;13.90;9.15;;;10.00;99.90;;;;;;5066733;28;20052;-74
2023/01/07 07:37:39;;;;;;;15.10;9.65;;;10.00;99.90;;;;;;5054596;28;20423;-73
2023/01/07 07:40:06;;;;;;;14.15;8.32;;;10.00;99.90;;;;;;5073916;28;20044;-73
2023/01/07 07:42:32;;;;;;;19.30;9.52;;;10.00;99.90;;;;;;5067496;28;20090;-73
2023/01/07 07:44:57;;;;;;;14.55;8.73;;;10.00;99.90;;;;;;5055786;28;20048;-73
2023/01/07 07:47:23;;;;;;;13.50;9.57;;;10.00;99.90;;;;;;5053641;28;20059;-75
2023/01/07 07:49:50;;;;;;;13.68;9.15;;;9.90;99.90;;;;;;5039253;28;20079;-73
2023/01/07 07:52:16;;;;;;;16.83;9.05;;;10.00;99.90;;;;;;5057152;28;20265;-74
2023/01/07 07:54:42;;;;;;;17.70;8.75;;;9.90;99.90;;;;;;5073621;28;20182;-73
2023/01/07 07:57:11;;;;;;;14.23;8.80;;;9.90;99.90;;;;;;5056787;28;20460;-74
2023/01/07 07:59:36;;;;;;;13.90;8.90;;;9.90;99.90;;;;;;5042922;28;20172;-72
2023/01/07 08:02:02;;;;;;;12.98;8.75;;;9.90;99.90;;;;;;5043916;28;20063;-73
2023/01/07 08:04:28;;;;;;;15.80;8.18;;;9.90;99.90;;;;;;5075750;28;20028;-75
2023/01/07 08:06:54;;;;;;;14.68;8.23;;;9.90;99.90;;;;;;5037536;28;20043;-74
2023/01/07 08:09:20;;;;;;;14.57;8.63;;;9.90;99.90;;;;;;5057079;28;20396;-72
2023/01/07 08:11:45;;;;;;;13.65;8.35;;;9.90;99.90;;;;;;5056776;28;20043;-74
2023/01/07 08:14:11;;;;;;;14.25;8.07;;;9.90;99.90;;;;;;5039824;28;20137;-73
2023/01/07 08:16:37;;;;;;;11.13;7.50;;;9.80;99.90;;;;;;5065997;28;20411;-72
2023/01/07 08:19:03;;;;;;;11.60;6.93;;;9.90;99.90;;;;;;5035020;28;20045;-71
2023/01/07 08:21:29;;;;;;;14.75;7.60;;;9.80;99.90;;;;;;5051468;28;20058;-71
2023/01/07 08:23:54;;;;;;;11.82;6.68;;;9.80;99.90;;;;;;5043703;28;20068;-72
2023/01/07 08:26:20;;;;;;;11.85;6.75;;;9.80;99.90;;;;;;5056792;28;20051;-74
2023/01/07 08:28:47;;;;;;;13.98;6.93;;;9.80;99.90;;;;;;5045918;28;20058;-74
2023/01/07 08:31:13;;;;;;;13.57;6.65;;;9.80;99.90;;;;;;5043527;28;20051;-72
2023/01/07 08:33:38;;;;;;;12.57;7.30;;;9.80;99.90;;;;;;5021594;28;20058;-73
2023/01/07 08:36:06;;;;;;;11.13;5.78;;;9.80;99.90;;;;;;5037177;28;20082;-73
2023/01/07 08:38:32;;;;;;;9.93;5.80;;;10.10;99.90;;;;;;5049325;28;20049;-73
2023/01/07 08:40:58;;;;;;;8.93;5.68;;;9.80;99.90;;;;;;5056973;28;20051;-72
2023/01/07 08:43:24;;;;;;;8.75;5.63;;;9.80;99.90;;;;;;5054168;28;20047;-74
2023/01/07 08:45:51;;;;;;;12.63;6.40;;;9.80;99.90;;;;;;5044486;28;20130;-72
2023/01/07 08:48:17;;;;;;;10.93;6.53;;;9.70;99.90;;;;;;5073573;28;20707;-72
2023/01/07 08:50:47;;;;;;;10.77;5.78;;;9.80;99.90;;;;;;5073930;28;20087;-73
2023/01/07 08:53:13;;;;;;;10.95;5.75;;;9.80;99.90;;;;;;5068483;28;20665;-73
2023/01/07 08:55:38;;;;;;;8.73;4.80;;;9.80;99.90;;;;;;5058237;28;20052;-73
2023/01/07 08:58:04;;;;;;;9.93;5.25;;;9.80;99.90;;;;;;5042169;28;20045;-73
2023/01/07 09:00:30;;;;;;;8.05;4.53;;;9.80;99.90;;;;;;5032858;28;20542;-72
2023/01/07 09:02:56;;;;;;;8.73;4.88;;;9.80;99.90;;;;;;5059592;28;20048;-73
2023/01/07 09:05:23;;;;;;;9.18;5.20;;;9.80;99.90;;;;;;5042836;28;20072;-73
2023/01/07 09:07:52;;;;;;;9.75;4.95;;;9.80;99.90;;;;;;5075443;28;20060;-74
2023/01/07 09:10:18;;;;;;;11.13;5.00;;;9.80;99.90;;;;;;5076965;28;20623;-74
2023/01/07 09:12:44;;;;;;;10.05;4.38;;;9.80;99.90;;;;;;5034514;28;20114;-73
2023/01/07 09:15:10;;;;;;;7.50;4.22;;;9.80;99.90;;;;;;5059517;28;20075;-73
2023/01/07 09:17:36;;;;;;;10.65;5.07;;;9.80;99.90;;;;;;5069522;28;20408;-73
2023/01/07 09:20:03;;;;;;;8.02;4.97;;;9.80;99.90;;;;;;5056271;28;20820;-74
2023/01/07 09:22:33;;;;;;;9.88;4.63;;;9.80;99.90;;;;;;5035238;28;20047;-73
2023/01/07 09:24:59;;;;;;;8.85;4.53;;;9.80;99.90;;;;;;5037781;28;20063;-73
2023/01/07 09:27:25;;;;;;;10.35;3.97;;;9.80;99.90;;;;;;5074458;28;20029;-73
2023/01/07 09:29:53;;;;;;;7.53;4.53;;;9.80;99.90;;;;;;5053904;28;20056;-73
2023/01/07 09:32:19;;;;;;;8.48;4.60;;;9.80;99.90;;;;;;5059431;28;20056;-73
2023/01/07 09:34:45;;;;;;;8.43;3.88;;;9.80;99.90;;;;;;5057984;28;20586;-73
2023/01/07 09:37:11;;;;;;;10.00;3.88;;;9.80;99.90;;;;;;5078966;28;20043;-73
2023/01/07 09:39:37;;;;;;;9.35;4.00;;;9.80;99.90;;;;;;5064388;28;20624;-73
2023/01/07 09:42:25;;;;;;;8.35;3.92;;;9.80;99.90;;;;;;5057019;28;20059;-74
2023/01/07 09:44:59;;;;;;;8.98;4.07;;;9.80;99.90;;;;;;5060829;28;20048;-72
2023/01/07 09:47:28;;;;;;;9.20;3.58;;;9.80;99.90;;;;;;5039442;28;20139;-72
2023/01/07 09:50:00;;;;;;;8.70;3.78;;;9.80;99.90;;;;;;5069662;28;20234;-72
2023/01/07 09:52:41;;;;;;;7.78;3.83;;;9.80;99.90;;;;;;5056919;28;20040;-73
2023/01/07 09:55:19;;;;;;;9.20;4.00;;;9.80;99.90;;;;;;5079886;28;20456;-72
2023/01/07 09:57:45;;;;;;;7.68;3.83;;;9.80;99.90;;;;;;5049035;28;20091;-73
2023/01/07 10:00:23;;;;;;;7.10;4.00;;;9.80;99.90;;;;;;5060299;28;20532;-72
2023/01/07 10:03:13;;;;;;;9.98;3.53;;;9.80;99.90;;;;;;5054802;28;20072;-72
2023/01/07 10:05:53;;;;;;;7.18;3.58;;;9.80;99.90;;;;;;5044171;28;20450;-72
2023/01/07 10:08:41;;;;;;;6.93;3.42;;;9.80;99.90;;;;;;5040680;28;20137;-72
2023/01/07 10:11:40;;;;;;;7.72;3.38;;;9.80;99.90;;;;;;5036468;28;20510;-73
2023/01/07 10:14:09;;;;;;;8.23;3.38;;;10.20;99.90;;;;;;5059363;28;20044;-72
2023/01/07 10:16:41;;;;;;;7.13;3.60;;;9.90;99.90;;;;;;5076912;28;20044;-74
2023/01/07 10:19:18;;;;;;;6.72;3.22;;;9.80;99.90;;;;;;5080614;28;20082;-72
2023/01/07 10:21:54;;;;;;;6.00;3.10;;;9.90;99.90;;;;;;5056096;28;20041;-73
2023/01/07 10:24:28;;;;;;;8.00;3.45;;;9.90;99.90;;;;;;5056332;28;20139;-72
2023/01/07 10:27:02;;;;;;;6.85;3.08;;;9.90;99.90;;;;;;5064609;28;20063;-73
2023/01/07 10:29:49;;;;;;;6.55;3.15;;;9.90;99.90;;;;;;5074590;28;20041;-73
2023/01/07 10:32:21;;;;;;;6.22;3.08;;;9.90;99.90;;;;;;5063428;28;20090;-74
2023/01/07 10:34:52;;;;;;;5.50;2.53;;;10.00;99.90;;;;;;5074872;28;20041;-72
2023/01/07 10:37:39;;;;;;;6.60;2.88;;;10.00;99.90;;;;;;5051260;28;20044;-72
2023/01/07 10:40:30;;;;;;;7.70;3.13;;;10.10;99.90;;;;;;5038057;28;20099;-72
2023/01/07 10:43:27;;;;;;;6.00;3.00;;;10.00;99.90;;;;;;5073872;28;20044;-73
2023/01/07 10:46:23;;;;;;;5.57;2.50;;;10.00;99.90;;;;;;5056133;28;20106;-73
2023/01/07 10:49:16;;;;;;;8.65;3.08;;;10.00;99.90;;;;;;5068627;28;20058;-72
2023/01/07 10:51:48;;;;;;;8.20;3.00;;;10.10;99.90;;;;;;5064848;28;20083;-73
2023/01/07 10:54:35;;;;;;;6.53;3.20;;;10.10;99.90;;;;;;5073528;28;20447;-73
2023/01/07 10:57:11;;;;;;;7.25;2.72;;;10.10;99.90;;;;;;5073422;28;20498;-73
2023/01/07 10:59:37;;;;;;;6.28;2.80;;;10.10;99.90;;;;;;5056916;28;20084;-74
2023/01/07 11:02:10;;;;;;;6.53;2.72;;;10.10;99.90;;;;;;5074316;28;20115;-73
2023/01/07 11:04:35;;;;;;;6.43;3.10;;;10.10;99.90;;;;;;5074297;28;20047;-70
2023/01/07 11:07:09;;;;;;;8.32;3.03;;;10.20;99.90;;;;;;5046707;28;20404;-72
2023/01/07 11:09:40;;;;;;;10.52;2.88;;;10.10;99.90;;;;;;5070084;28;21357;-72
2023/01/07 11:12:27;;;;;;;5.10;2.60;;;10.20;99.90;;;;;;5056103;28;20052;-73
2023/01/07 11:14:57;;;;;;;6.20;2.72;;;10.30;99.90;;;;;;5033204;28;20040;-73
2023/01/07 11:17:35;;;;;;;5.13;2.50;;;10.30;99.90;;;;;;5038402;28;20127;-73
2023/01/07 11:20:02;;;;;;;4.90;2.33;;;10.30;99.90;;;;;;5057035;28;20063;-73
2023/01/07 11:22:36;;;;;;;5.25;2.40;;;10.30;99.90;;;;;;5050057;28;20097;-72
2023/01/07 11:25:26;;;;;;;5.72;2.58;;;10.30;99.90;;;;;;5044488;28;20505;-73
2023/01/07 11:27:52;;;;;;;5.15;1.73;;;10.40;99.90;;;;;;5069326;28;20405;-72
2023/01/07 11:30:28;;;;;;;4.60;1.88;;;10.40;99.90;;;;;;5061100;28;20043;-73
2023/01/07 11:33:12;;;;;;;6.80;2.38;;;10.60;99.90;;;;;;5054159;28;20553;-73
2023/01/07 11:35:49;;;;;;;5.57;2.28;;;10.50;99.90;;;;;;5063498;28;20154;-74
2023/01/07 11:38:26;;;;;;;6.20;2.17;;;10.60;99.90;;;;;;5057764;28;20135;-73
2023/01/07 11:40:57;;;;;;;4.15;2.00;;;10.50;99.90;;;;;;5052577;28;20048;-73
2023/01/07 11:43:29;;;;;;;7.82;2.33;;;10.60;99.90;;;;;;5053236;28;20378;-74
2023/01/07 11:46:01;;;;;;;6.32;1.98;;;10.60;99.90;;;;;;5063742;28;20045;-73
2023/01/07 11:48:33;;;;;;;6.72;2.00;;;10.60;99.90;;;;;;5050730;28;20048;-72
2023/01/07 11:51:01;;;;;;;5.88;1.77;;;10.60;99.90;;;;;;5051337;28;20149;-73
2023/01/07 11:53:37;;;;;;;4.18;1.52;;;10.60;99.90;;;;;;5058723;28;20048;-73
2023/01/07 11:56:08;;;;;;;4.32;1.60;;;10.60;99.90;;;;;;5056710;28;20062;-72
2023/01/07 11:58:39;;;;;;;6.05;2.00;;;10.60;99.90;;;;;;5065591;28;20081;-73
2023/01/07 12:01:11;;;;;;;;;;;10.60;99.90;;;;;;5070897;28;20100;-72
2023/01/07 12:03:42;;;;;;;4.28;1.75;;;10.60;99.90;;;;;;5034651;28;19930;-73
2023/01/07 12:06:29;;;;;;;6.95;1.73;;;10.60;99.90;;;;;;5071503;28;20051;-73
2023/01/07 12:09:03;;;;;;;4.43;1.80;;;10.60;99.90;;;;;;5044620;28;20044;-72
2023/01/07 12:11:37;;;;;;;6.50;1.75;;;10.70;99.90;;;;;;5067496;28;20047;-73
2023/01/07 12:14:07;;;;;;;3.38;1.50;;;10.60;99.90;;;;;;5035811;28;20053;-73
2023/01/07 12:16:34;;;;;;;4.03;1.70;;;10.70;99.90;;;;;;5030815;28;20044;-72
2023/01/07 12:19:09;;;;;;;4.60;2.03;;;10.70;99.90;;;;;;5012720;28;20102;-73
2023/01/07 12:21:46;;;;;;;3.55;1.67;;;10.60;99.90;;;;;;5029331;28;20094;-71
2023/01/07 12:24:28;;;;;;;5.57;1.90;;;10.60;99.90;;;;;;5008748;28;20048;-72
2023/01/07 12:27:06;;;;;;;3.97;1.63;;;10.60;99.90;;;;;;5058015;28;20040;-73
2023/01/07 12:29:47;;;;;;;2.95;1.27;;;10.60;99.90;;;;;;5046529;28;20106;-72
2023/01/07 12:32:15;;;;;;;3.60;1.45;;;10.60;99.90;;;;;;5039091;28;20032;-73
2023/01/07 12:34:59;;;;;;;4.28;1.55;;;10.60;99.90;;;;;;5035201;28;20567;-72
2023/01/07 12:38:14;;;;;;;3.90;1.55;;;10.60;99.90;;;;;;5058056;28;20143;-72
2023/01/07 12:41:00;;;;;;;4.03;1.50;;;10.60;99.90;;;;;;5027960;28;20305;-77
2023/01/07 12:43:38;;;;;;;4.93;1.48;;;10.70;99.90;;;;;;5019344;28;20064;-76
2023/01/07 12:46:10;;;;;;;2.92;1.35;;;10.70;99.90;;;;;;5028701;28;20044;-77
2023/01/07 12:49:06;;;;;;;5.55;1.67;;;10.70;99.90;;;;;;5007377;28;20053;-77
2023/01/07 12:51:49;;;;;;;4.53;1.65;;;10.70;99.90;;;;;;5001823;28;20079;-77
2023/01/07 12:54:41;;;;;;;4.63;1.50;;;10.80;99.90;;;;;;5027421;28;20049;-76
2023/01/07 12:57:23;;;;;;;4.10;1.40;;;10.80;99.90;;;;;;5028288;28;20053;-76
2023/01/07 13:00:15;;;;;;;4.00;1.75;;;10.80;99.90;;;;;;5031120;28;20044;-77